createdAt,value
2019-04-01T00:00:45.465Z,99546.30
2019-04-01T00:03:14.261Z,99544.48
2019-04-01T00:05:42.981Z,99546.56
2019-04-01T00:08:11.698Z,99547.08
2019-04-01T00:10:40.663Z,99540.59
2019-04-01T00:13:09.384Z,99536.70
2019-04-01T00:15:38.099Z,99535.17
2019-04-01T00:18:06.965Z,99526.61
2019-04-01T00:20:35.683Z,99524.80
2019-04-01T00:23:04.563Z,99516.50
2019-04-01T00:25:33.991Z,99523.22
2019-04-01T00:28:03.763Z,99520.89
2019-04-01T00:30:32.477Z,99524.02
2019-04-01T00:33:01.568Z,99520.66
2019-04-01T00:35:30.283Z,99518.58
2019-04-01T00:37:58.998Z,99523.52
2019-04-01T00:40:27.901Z,99521.95
2019-04-01T00:43:14.568Z,99523.79
2019-04-01T00:45:45.098Z,99525.85
2019-04-01T00:48:13.810Z,99529.73
2019-04-01T00:50:42.521Z,99529.98
2019-04-01T00:53:11.394Z,99533.09
2019-04-01T00:55:40.112Z,99533.88
2019-04-01T00:58:08.822Z,99539.60
2019-04-01T01:00:37.688Z,99526.88
2019-04-01T01:03:06.410Z,99529.47
2019-04-01T01:05:35.121Z,99527.91
2019-04-01T01:08:04.169Z,99529.47
2019-04-01T01:10:32.896Z,99529.47
2019-04-01T01:13:01.616Z,99526.09
2019-04-01T01:15:30.488Z,99523.77
2019-04-01T01:17:59.207Z,99531.81
2019-04-01T01:20:27.935Z,99519.38
2019-04-01T01:22:57.146Z,99517.02
2019-04-01T01:25:25.877Z,99520.37
2019-04-01T01:27:54.598Z,99518.53
2019-04-01T01:30:23.558Z,99519.34
2019-04-01T01:32:52.294Z,99510.50
2019-04-01T01:35:21.072Z,99516.98
2019-04-01T01:37:49.835Z,99518.04
2019-04-01T01:40:18.563Z,99517.28
2019-04-01T01:42:47.278Z,99512.63
2019-04-01T01:45:16.072Z,99513.39
2019-04-01T01:47:44.790Z,99516.25
2019-04-01T01:50:13.611Z,99518.08
2019-04-01T01:52:45.580Z,99517.02
2019-04-01T01:55:14.298Z,99522.74
2019-04-01T01:57:43.214Z,99513.39
2019-04-01T02:00:13.391Z,99514.96
2019-04-01T02:02:42.118Z,99526.36
2019-04-01T02:05:10.833Z,99522.20
2019-04-01T02:07:39.595Z,99528.69
2019-04-01T02:10:08.410Z,99529.73
2019-04-01T02:12:37.132Z,99538.30
2019-04-01T02:15:07.446Z,99533.10
2019-04-01T02:17:36.165Z,99533.04
2019-04-01T02:20:05.879Z,99537.38
2019-04-01T02:22:34.747Z,99535.84
2019-04-01T02:25:03.670Z,99537.34
2019-04-01T02:27:32.384Z,99541.66
2019-04-01T02:30:01.576Z,99541.63
2019-04-01T02:32:30.306Z,99539.55
2019-04-01T02:34:59.042Z,99539.77
2019-04-01T02:37:27.920Z,99545.70
2019-04-01T02:39:56.636Z,99543.13
2019-04-01T02:42:25.458Z,99544.17
2019-04-01T02:44:54.225Z,99547.82
2019-04-01T02:47:22.946Z,99546.81
2019-04-01T02:49:51.665Z,99545.58
2019-04-01T02:52:20.542Z,99540.91
2019-04-01T02:54:49.256Z,99537.78
2019-04-01T02:57:17.974Z,99544.75
2019-04-01T02:59:46.822Z,99546.81
2019-04-01T03:02:15.541Z,99547.60
2019-04-01T03:04:44.261Z,99540.38
2019-04-01T03:07:13.042Z,99542.66
2019-04-01T03:09:41.782Z,99536.73
2019-04-01T03:12:10.494Z,99536.93
2019-04-01T03:14:39.253Z,99538.45
2019-04-01T03:17:07.969Z,99543.34
2019-04-01T03:19:36.686Z,99549.02
2019-04-01T03:22:05.518Z,99552.18
2019-04-01T03:24:34.242Z,99548.23
2019-04-01T03:27:02.956Z,99549.31
2019-04-01T03:29:31.723Z,99550.50
2019-04-01T03:32:00.460Z,99546.78
2019-04-01T03:34:29.176Z,99540.87
2019-04-01T03:36:58.035Z,99535.66
2019-04-01T03:39:26.759Z,99537.58
2019-04-01T03:41:55.492Z,99536.84
2019-04-01T03:44:24.385Z,99538.09
2019-04-01T03:46:53.105Z,99531.81
2019-04-01T03:49:21.820Z,99533.42
2019-04-01T03:51:50.633Z,99537.56
2019-04-01T03:54:19.353Z,99537.73
2019-04-01T03:56:48.071Z,99543.45
2019-04-01T03:59:17.241Z,99542.91
2019-04-01T04:01:45.991Z,99535.87
2019-04-01T04:04:14.690Z,99540.33
2019-04-01T04:06:43.463Z,99535.48
2019-04-01T04:09:12.234Z,99536.30
2019-04-01T04:11:40.981Z,99544.04
2019-04-01T04:14:09.790Z,99548.12
2019-04-01T04:16:38.526Z,99544.50
2019-04-01T04:19:07.249Z,99547.84
2019-04-01T04:21:36.135Z,99545.98
2019-04-01T04:24:04.918Z,99545.21
2019-04-01T04:26:33.631Z,99552.23
2019-04-01T04:29:02.527Z,99546.80
2019-04-01T04:31:31.241Z,99547.56
2019-04-01T04:33:59.961Z,99554.23
2019-04-01T04:36:29.268Z,99558.77
2019-04-01T04:38:57.995Z,99567.31
2019-04-01T04:41:26.707Z,99570.00
2019-04-01T04:43:55.596Z,99569.13
2019-04-01T04:46:24.319Z,99578.72
2019-04-01T04:48:53.036Z,99586.03
2019-04-01T04:51:21.801Z,99590.78
2019-04-01T04:53:50.519Z,99601.48
2019-04-01T04:56:19.233Z,99604.30
2019-04-01T04:58:48.196Z,99602.09
2019-04-01T05:01:16.921Z,99598.80
2019-04-01T05:03:45.646Z,99599.91
2019-04-01T05:06:14.477Z,99600.47
2019-04-01T05:08:43.208Z,99602.47
2019-04-01T05:11:11.925Z,99597.05
2019-04-01T05:13:40.718Z,99605.37
2019-04-01T05:16:09.434Z,99608.77
2019-04-01T05:18:38.157Z,99612.41
2019-04-01T05:21:07.245Z,99615.74
2019-04-01T05:23:35.961Z,99609.24
2019-04-01T05:26:04.684Z,99606.88
2019-04-01T05:28:34.938Z,99613.88
2019-04-01T05:31:04.955Z,99617.30
2019-04-01T05:33:36.684Z,99612.64
2019-04-01T05:36:05.956Z,99616.63
2019-04-01T05:38:34.665Z,99620.48
2019-04-01T05:41:04.090Z,99614.61
2019-04-01T05:43:32.932Z,99627.57
2019-04-01T05:46:01.653Z,99623.23
2019-04-01T05:48:31.572Z,99630.58
2019-04-01T05:51:00.420Z,99620.11
2019-04-01T05:53:29.156Z,99621.55
2019-04-01T05:55:58.078Z,99628.48
2019-04-01T05:58:26.834Z,99626.58
2019-04-01T06:01:00.132Z,99631.61
2019-04-01T06:03:28.955Z,99629.64
2019-04-01T06:05:57.729Z,99638.48
2019-04-01T06:08:26.455Z,99635.73
2019-04-01T06:10:55.178Z,99633.63
2019-04-01T06:13:24.138Z,99633.01
2019-04-01T06:15:52.859Z,99631.70
2019-04-01T06:18:21.780Z,99630.79
2019-04-01T06:20:50.604Z,99637.14
2019-04-01T06:23:20.764Z,99634.95
2019-04-01T06:25:49.586Z,99645.13
2019-04-01T06:28:18.344Z,99652.85
2019-04-01T06:30:47.170Z,99649.57
2019-04-01T06:33:15.906Z,99647.09
2019-04-01T06:35:45.027Z,99645.66
2019-04-01T06:38:13.951Z,99651.41
2019-04-01T06:40:42.676Z,99646.42
2019-04-01T06:43:11.551Z,99648.00
2019-04-01T06:45:40.331Z,99648.78
2019-04-01T06:48:09.065Z,99647.03
2019-04-01T06:50:38.233Z,99654.88
2019-04-01T06:53:06.954Z,99646.33
2019-04-01T06:55:35.689Z,99639.74
2019-04-01T06:58:04.615Z,99643.99
2019-04-01T07:00:33.344Z,99640.07
2019-04-01T07:03:02.070Z,99639.41
2019-04-01T07:05:30.941Z,99644.33
2019-04-01T07:07:59.970Z,99643.15
2019-04-01T07:10:28.806Z,99646.13
2019-04-01T07:12:57.689Z,99645.40
2019-04-01T07:15:26.490Z,99646.20
2019-04-01T07:17:55.209Z,99652.08
2019-04-01T07:20:24.082Z,99655.95
2019-04-01T07:22:52.908Z,99658.50
2019-04-01T07:25:21.627Z,99657.77
2019-04-01T07:27:50.906Z,99659.92
2019-04-01T07:30:19.731Z,99658.41
2019-04-01T07:32:48.456Z,99651.23
2019-04-01T07:35:17.276Z,99653.27
2019-04-01T07:37:46.003Z,99653.13
2019-04-01T07:40:14.744Z,99656.97
2019-04-01T07:42:43.605Z,99654.80
2019-04-01T07:45:12.332Z,99654.09
2019-04-01T07:47:41.105Z,99652.27
2019-04-01T07:50:12.286Z,99649.08
2019-04-01T07:52:40.825Z,99653.81
2019-04-01T07:55:10.047Z,99651.32
2019-04-01T07:57:39.274Z,99655.40
2019-04-01T08:00:08.083Z,99648.38
2019-04-01T08:02:36.801Z,99649.66
2019-04-01T08:05:06.788Z,99640.42
2019-04-01T08:07:35.502Z,99641.98
2019-04-01T08:10:06.523Z,99638.32
2019-04-01T08:12:35.475Z,99640.06
2019-04-01T08:15:06.206Z,99642.94
2019-04-01T08:17:34.929Z,99641.04
2019-04-01T08:20:04.011Z,99636.30
2019-04-01T08:22:32.734Z,99636.41
2019-04-01T08:25:02.059Z,99633.59
2019-04-01T08:27:30.815Z,99633.41
2019-04-01T08:29:59.545Z,99628.13
2019-04-01T08:32:28.301Z,99629.98
2019-04-01T08:34:57.565Z,99628.61
2019-04-01T08:37:26.553Z,99620.86
2019-04-01T08:39:55.281Z,99619.42
2019-04-01T08:42:24.122Z,99623.80
2019-04-01T08:44:52.848Z,99615.09
2019-04-01T08:47:21.579Z,99615.56
2019-04-01T08:49:50.488Z,99606.70
2019-04-01T08:52:19.213Z,99604.15
2019-04-01T08:54:47.940Z,99599.28
2019-04-01T08:57:16.797Z,99603.38
2019-04-01T08:59:45.510Z,99603.02
2019-04-01T09:02:18.297Z,99596.78
2019-04-01T09:04:44.936Z,99601.50
2019-04-01T09:07:13.681Z,99598.17
2019-04-01T09:09:44.760Z,99604.08
2019-04-01T09:12:13.845Z,99598.08
2019-04-01T09:14:43.362Z,99599.00
2019-04-01T09:17:12.790Z,99588.15
2019-04-01T09:19:41.935Z,99586.81
2019-04-01T09:22:10.655Z,99581.41
2019-04-01T09:24:39.385Z,99578.80
2019-04-01T09:27:08.166Z,99578.88
2019-04-01T09:29:36.891Z,99578.03
2019-04-01T09:32:05.615Z,99569.52
2019-04-01T09:34:34.464Z,99566.27
2019-04-01T09:37:03.186Z,99560.62
2019-04-01T09:39:31.906Z,99558.36
2019-04-01T09:42:00.754Z,99556.28
2019-04-01T09:44:36.522Z,99556.59
2019-04-01T09:46:59.920Z,99553.06
2019-04-01T09:49:28.708Z,99551.05
2019-04-01T09:51:57.515Z,99545.58
2019-04-01T09:54:26.208Z,99556.38
2019-04-01T09:56:55.057Z,99555.17
2019-04-01T09:59:23.801Z,99548.09
2019-04-01T10:01:52.524Z,99555.05
2019-04-01T10:04:21.279Z,99546.72
2019-04-01T10:06:49.991Z,99548.17
2019-04-01T10:09:18.714Z,99535.39
2019-04-01T10:11:47.545Z,99533.95
2019-04-01T10:14:16.253Z,99535.14
2019-04-01T10:16:44.982Z,99539.60
2019-04-01T10:19:13.830Z,99540.20
2019-04-01T10:21:45.216Z,99527.98
2019-04-01T10:24:13.003Z,99534.48
2019-04-01T10:26:41.795Z,99523.96
2019-04-01T10:29:10.512Z,99528.89
2019-04-01T10:31:39.319Z,99521.70
2019-04-01T10:36:36.057Z,99513.58
2019-04-01T10:39:06.941Z,99514.91
2019-04-01T10:41:35.805Z,99512.89
2019-04-01T10:44:05.327Z,99502.75
2019-04-01T10:46:34.107Z,99502.12
2019-04-01T10:49:03.013Z,99502.91
2019-04-01T10:51:31.775Z,99500.47
2019-04-01T10:54:00.480Z,99494.15
2019-04-01T10:56:29.365Z,99498.31
2019-04-01T10:58:58.160Z,99498.69
2019-04-01T11:01:26.985Z,99490.27
2019-04-01T11:03:55.741Z,99481.48
2019-04-01T11:06:24.596Z,99482.48
2019-04-01T11:08:53.359Z,99476.21
2019-04-01T11:11:22.119Z,99466.36
2019-04-01T11:13:51.991Z,99470.56
2019-04-01T11:16:21.691Z,99464.73
2019-04-01T11:18:50.738Z,99457.69
2019-04-01T11:21:19.515Z,99459.19
2019-04-01T11:23:48.368Z,99452.94
2019-04-01T11:26:17.727Z,99455.25
2019-04-01T11:28:46.433Z,99448.28
2019-04-01T11:31:15.169Z,99447.91
2019-04-01T11:33:44.220Z,99450.63
2019-04-01T11:36:13.910Z,99448.19
2019-04-01T11:38:43.019Z,99442.77
2019-04-01T11:41:12.221Z,99431.67
2019-04-01T11:43:40.958Z,99426.62
2019-04-01T11:46:12.519Z,99432.86
2019-04-01T11:48:40.156Z,99432.72
2019-04-01T11:51:08.869Z,99426.44
2019-04-01T11:53:37.671Z,99425.03
2019-04-01T11:56:07.181Z,99425.18
2019-04-01T11:58:35.900Z,99426.31
2019-04-01T12:01:04.625Z,99419.45
2019-04-01T12:03:33.935Z,99409.55
2019-04-01T12:06:02.659Z,99411.02
2019-04-01T12:08:31.671Z,99410.84
2019-04-01T12:11:00.559Z,99409.50
2019-04-01T12:13:29.282Z,99407.84
2019-04-01T12:15:57.992Z,99403.37
2019-04-01T12:18:26.752Z,99403.78
2019-04-01T12:20:55.470Z,99401.89
2019-04-01T12:23:24.184Z,99405.09
2019-04-01T12:25:53.019Z,99394.84
2019-04-01T12:28:21.731Z,99395.24
2019-04-01T12:30:52.018Z,99385.98
2019-04-01T12:33:21.102Z,99382.27
2019-04-01T12:35:50.073Z,99373.05
2019-04-01T12:38:18.806Z,99373.44
2019-04-01T12:40:47.583Z,99367.11
2019-04-01T12:43:16.313Z,99372.91
2019-04-01T12:45:45.217Z,99366.08
2019-04-01T12:48:14.094Z,99359.61
2019-04-01T12:50:42.819Z,99363.14
2019-04-01T12:53:11.537Z,99354.35
2019-04-01T12:55:44.669Z,99348.02
2019-04-01T12:58:11.269Z,99345.22
2019-04-01T13:00:39.979Z,99348.50
2019-04-01T13:03:08.766Z,99344.94
2019-04-01T13:05:37.490Z,99345.95
2019-04-01T13:08:06.205Z,99339.57
2019-04-01T13:10:35.308Z,99343.92
2019-04-01T13:13:04.121Z,99340.08
2019-04-01T13:15:32.834Z,99346.02
2019-04-01T13:18:01.595Z,99336.61
2019-04-01T13:20:37.689Z,99332.84
2019-04-01T13:23:00.763Z,99336.13
2019-04-01T13:25:29.533Z,99334.17
2019-04-01T13:27:58.267Z,99337.19
2019-04-01T13:30:26.978Z,99334.22
2019-04-01T13:32:56.258Z,99336.73
2019-04-01T13:35:24.971Z,99337.28
2019-04-01T13:37:53.686Z,99328.27
2019-04-01T13:40:22.442Z,99330.83
2019-04-01T13:42:51.167Z,99329.58
2019-04-01T13:45:21.402Z,99332.27
2019-04-01T13:47:50.722Z,99330.77
2019-04-01T13:50:19.443Z,99325.86
2019-04-01T13:52:48.167Z,99326.50
2019-04-01T13:55:17.014Z,99333.02
2019-04-01T13:57:45.736Z,99325.97
2019-04-01T14:00:15.094Z,99319.52
2019-04-01T14:02:44.045Z,99315.13
2019-04-01T14:05:13.177Z,99324.92
2019-04-01T14:07:41.887Z,99323.34
2019-04-01T14:10:11.130Z,99320.44
2019-04-01T14:12:39.844Z,99321.34
2019-04-01T14:15:09.759Z,99321.28
2019-04-01T14:17:38.820Z,99324.89
2019-04-01T14:20:07.835Z,99321.89
2019-04-01T14:22:36.546Z,99325.84
2019-04-01T14:25:07.619Z,99325.39
2019-04-01T14:27:36.382Z,99323.67
2019-04-01T14:30:09.278Z,99320.70
2019-04-01T14:32:38.162Z,99320.70
2019-04-01T14:35:08.850Z,99322.27
2019-04-01T14:37:37.588Z,99323.45
2019-04-01T14:40:08.766Z,99324.43
2019-04-01T14:42:39.605Z,99322.41
2019-04-01T14:45:08.633Z,99328.22
2019-04-01T14:47:55.581Z,99329.75
2019-04-01T14:50:08.903Z,99330.09
2019-04-01T14:52:37.631Z,99332.50
2019-04-01T14:55:06.583Z,99330.60
2019-04-01T14:57:35.301Z,99330.84
2019-04-01T15:00:06.315Z,99328.84
2019-04-01T15:02:35.307Z,99337.42
2019-04-01T15:05:04.994Z,99342.45
2019-04-01T15:07:33.824Z,99337.00
2019-04-01T15:10:02.593Z,99348.80
2019-04-01T15:12:31.323Z,99346.92
2019-04-01T15:15:00.034Z,99345.25
2019-04-01T15:17:28.999Z,99346.41
2019-04-01T15:19:57.734Z,99339.52
2019-04-01T15:22:27.237Z,99341.45
2019-04-01T15:24:56.273Z,99342.39
2019-04-01T15:27:24.996Z,99347.48
2019-04-01T15:29:53.728Z,99343.52
2019-04-01T15:32:23.197Z,99348.99
2019-04-01T15:34:52.194Z,99349.72
2019-04-01T15:37:20.919Z,99343.12
2019-04-01T15:39:49.994Z,99355.94
2019-04-01T15:42:18.754Z,99352.86
2019-04-01T15:44:47.482Z,99362.60
2019-04-01T15:47:16.515Z,99360.89
2019-04-01T15:49:45.194Z,99361.63
2019-04-01T15:52:13.878Z,99361.65
2019-04-01T15:54:42.607Z,99364.89
2019-04-01T15:57:15.001Z,99365.08
2019-04-01T15:59:41.705Z,99370.56
2019-04-01T16:02:16.157Z,99367.12
2019-04-01T16:04:44.861Z,99356.95
2019-04-01T16:07:13.538Z,99366.18
2019-04-01T16:09:42.375Z,99367.80
2019-04-01T16:12:11.062Z,99374.88
2019-04-01T16:14:40.287Z,99372.37
2019-04-01T16:17:09.626Z,99371.28
2019-04-01T16:19:38.319Z,99371.02
2019-04-01T16:22:07.001Z,99377.77
2019-04-01T16:24:35.836Z,99370.80
2019-04-01T16:27:04.524Z,99378.63
2019-04-01T16:29:33.209Z,99380.74
2019-04-01T16:32:01.981Z,99374.83
2019-04-01T16:34:30.671Z,99376.11
2019-04-01T16:36:59.346Z,99381.56
2019-04-01T16:39:28.079Z,99384.56
2019-04-01T16:41:56.756Z,99391.63
2019-04-01T16:44:25.444Z,99394.08
2019-04-01T16:46:54.298Z,99389.28
2019-04-01T16:49:22.978Z,99397.73
2019-04-01T16:51:51.670Z,99399.61
2019-04-01T16:54:20.421Z,99396.11
2019-04-01T16:56:49.120Z,99395.81
2019-04-01T16:59:17.813Z,99395.58
2019-04-01T17:01:46.788Z,99396.34
2019-04-01T17:04:17.070Z,99403.84
2019-04-01T17:06:46.021Z,99406.45
2019-04-01T17:09:14.833Z,99412.55
2019-04-01T17:11:43.531Z,99417.20
2019-04-01T17:14:12.217Z,99419.41
2019-04-01T17:16:41.378Z,99427.23
2019-04-01T17:19:10.112Z,99424.25
2019-04-01T17:21:38.750Z,99426.55
2019-04-01T17:24:07.598Z,99434.49
2019-04-01T17:26:44.815Z,99433.72
2019-04-01T17:29:13.547Z,99442.84
2019-04-01T17:31:42.232Z,99444.61
2019-04-01T17:34:10.913Z,99449.00
2019-04-01T17:36:40.135Z,99461.21
2019-04-01T17:39:12.140Z,99455.60
2019-04-01T17:41:42.231Z,99455.38
2019-04-01T17:44:11.070Z,99465.02
2019-04-01T17:46:39.749Z,99469.98
2019-04-01T17:49:08.439Z,99478.00
2019-04-01T17:51:37.480Z,99475.91
2019-04-01T17:54:06.168Z,99481.17
2019-04-01T17:56:34.851Z,99489.97
2019-04-01T17:59:04.053Z,99494.02
2019-04-01T18:01:32.776Z,99495.41
2019-04-01T18:04:02.522Z,99493.81
2019-04-01T18:06:31.680Z,99503.71
2019-04-01T18:09:00.441Z,99506.64
2019-04-01T18:11:30.579Z,99514.71
2019-04-01T18:14:02.740Z,99520.11
2019-04-01T18:16:31.451Z,99522.45
2019-04-01T18:19:00.333Z,99523.80
2019-04-01T18:21:29.287Z,99527.88
2019-04-01T18:23:57.970Z,99536.55
2019-04-01T18:26:26.653Z,99544.66
2019-04-01T18:28:55.752Z,99568.30
2019-04-01T18:31:24.474Z,99572.67
2019-04-01T18:33:56.565Z,99569.68
2019-04-01T18:36:23.964Z,99572.78
2019-04-01T18:38:52.642Z,99574.05
2019-04-01T18:41:21.323Z,99571.83
2019-04-01T18:43:50.041Z,99580.19
2019-04-01T18:46:21.121Z,99586.88
2019-04-01T18:48:49.123Z,99582.77
2019-04-01T18:51:20.366Z,99589.29
2019-04-01T18:53:48.254Z,99584.22
2019-04-01T18:56:16.943Z,99595.17
2019-04-01T18:58:45.651Z,99593.56
2019-04-01T19:01:15.877Z,99599.59
2019-04-01T19:03:44.688Z,99600.81
2019-04-01T19:06:13.454Z,99597.44
2019-04-01T19:08:42.150Z,99598.56
2019-04-01T19:11:10.886Z,99606.69
2019-04-01T19:13:39.853Z,99605.54
2019-04-01T19:16:11.796Z,99612.41
2019-04-01T19:18:41.955Z,99610.27
2019-04-01T19:21:12.189Z,99606.94
2019-04-01T19:23:40.974Z,99609.64
2019-04-01T19:26:11.090Z,99611.48
2019-04-01T19:28:40.191Z,99616.36
2019-04-01T19:31:08.880Z,99618.92
2019-04-01T19:33:38.264Z,99616.45
2019-04-01T19:36:07.376Z,99620.36
2019-04-01T19:38:36.066Z,99625.05
2019-04-01T19:41:04.737Z,99619.36
2019-04-01T19:43:56.274Z,99621.92
2019-04-01T19:46:16.232Z,99621.78
2019-04-01T19:48:44.913Z,99630.28
2019-04-01T19:51:13.827Z,99630.59
2019-04-01T19:53:42.523Z,99642.02
2019-04-01T19:56:11.208Z,99645.20
2019-04-01T19:58:39.957Z,99644.62
2019-04-01T20:01:08.661Z,99648.39
2019-04-01T20:03:37.358Z,99654.69
2019-04-01T20:06:07.644Z,99659.48
2019-04-01T20:08:36.485Z,99660.35
2019-04-01T20:11:05.191Z,99655.88
2019-04-01T20:13:33.940Z,99652.80
2019-04-01T20:19:08.755Z,99657.20
2019-04-01T20:21:37.429Z,99660.82
2019-04-01T20:24:06.111Z,99658.41
2019-04-01T20:26:34.850Z,99656.25
2019-04-01T20:29:03.545Z,99659.47
2019-04-01T20:31:32.236Z,99657.81
2019-04-01T20:34:04.095Z,99653.75
2019-04-01T20:36:31.719Z,99650.55
2019-04-01T20:39:00.494Z,99657.62
2019-04-01T20:41:29.397Z,99654.34
2019-04-01T20:43:58.082Z,99660.38
2019-04-01T20:46:26.770Z,99662.42
2019-04-01T20:48:55.498Z,99670.27
2019-04-01T20:51:25.886Z,99670.23
2019-04-01T20:53:54.737Z,99671.94
2019-04-01T20:56:23.666Z,99673.28
2019-04-01T20:58:52.358Z,99675.50
2019-04-01T21:01:21.042Z,99682.17
2019-04-01T21:03:49.858Z,99682.56
2019-04-01T21:06:18.647Z,99676.98
2019-04-01T21:08:47.428Z,99667.54
2019-04-01T21:11:16.567Z,99669.54
2019-04-01T21:13:45.272Z,99672.25
2019-04-01T21:16:13.949Z,99677.94
2019-04-01T21:18:42.748Z,99676.34
2019-04-01T21:21:11.433Z,99677.09
2019-04-01T21:23:40.118Z,99679.33
2019-04-01T21:26:08.959Z,99677.61
2019-04-01T21:28:37.644Z,99679.78
2019-04-01T21:31:06.335Z,99690.38
2019-04-01T21:33:35.155Z,99688.66
2019-04-01T21:36:03.837Z,99685.30
2019-04-01T21:38:33.137Z,99688.66
2019-04-01T21:41:02.261Z,99697.02
2019-04-01T21:43:30.937Z,99701.91
2019-04-01T21:45:59.609Z,99704.59
2019-04-01T21:48:28.330Z,99707.17
2019-04-01T21:50:57.009Z,99705.34
2019-04-01T21:53:25.688Z,99705.83
2019-04-01T21:55:54.594Z,99704.86
2019-04-01T21:58:23.393Z,99708.08
2019-04-01T22:00:56.980Z,99704.59
2019-04-01T22:03:25.736Z,99709.97
2019-04-01T22:05:54.418Z,99711.80
2019-04-01T22:08:23.194Z,99711.40
2019-04-01T22:10:51.946Z,99714.38
2019-04-01T22:13:20.619Z,99719.69
2019-04-01T22:15:50.175Z,99721.98
2019-04-01T22:18:19.348Z,99728.84
2019-04-01T22:20:48.029Z,99731.09
2019-04-01T22:23:16.701Z,99727.87
2019-04-01T22:25:45.561Z,99725.94
2019-04-01T22:28:14.231Z,99732.03
2019-04-01T22:30:42.912Z,99739.19
2019-04-01T22:33:11.682Z,99733.73
2019-04-01T22:35:41.563Z,99741.28
2019-04-01T22:38:10.683Z,99742.90
2019-04-01T22:40:39.506Z,99745.02
2019-04-01T22:43:08.197Z,99739.33
2019-04-01T22:45:36.874Z,99743.82
2019-04-01T22:48:05.614Z,99741.00
2019-04-01T22:50:34.290Z,99744.11
2019-04-01T22:53:04.286Z,99745.20
2019-04-01T22:55:33.198Z,99744.13
2019-04-01T22:58:01.878Z,99743.38
2019-04-01T23:00:30.565Z,99739.72
2019-04-01T23:02:59.791Z,99744.68
2019-04-01T23:05:28.477Z,99740.16
2019-04-01T23:07:57.157Z,99747.03
2019-04-01T23:10:27.250Z,99743.14
2019-04-01T23:12:56.224Z,99744.52
2019-04-01T23:15:24.896Z,99751.30
2019-04-01T23:17:53.740Z,99762.30
2019-04-01T23:20:22.413Z,99760.66
2019-04-01T23:22:51.087Z,99756.66
2019-04-01T23:25:20.217Z,99757.27
2019-04-01T23:27:48.896Z,99759.53
2019-04-01T23:30:17.567Z,99760.19
2019-04-01T23:32:46.392Z,99756.34
2019-04-01T23:35:15.164Z,99765.05
2019-04-01T23:37:43.852Z,99765.20
2019-04-01T23:40:12.890Z,99768.12
2019-04-01T23:42:41.568Z,99775.34
2019-04-01T23:45:10.742Z,99775.73
2019-04-01T23:47:39.578Z,99776.31
2019-04-01T23:50:09.833Z,99781.77
2019-04-01T23:52:38.619Z,99787.28
2019-04-01T23:55:07.568Z,99788.64
2019-04-01T23:57:36.247Z,99783.17
